sensor_id;sensor_type;location;lat;lon;timestamp;P1;durP1;ratioP1;P2;durP2;ratioP2
78668;SDS011;67984;45.118;20.724;2023-03-21T00:07:17;30.70;;;17.20;;
78668;SDS011;67984;45.118;20.724;2023-03-21T00:17:17;26.65;;;15.18;;
78668;SDS011;67984;45.118;20.724;2023-03-21T00:27:21;24.90;;;15.45;;
78668;SDS011;67984;45.118;20.724;2023-03-21T00:37:22;21.93;;;11.47;;
78668;SDS011;67984;45.118;20.724;2023-03-21T00:47:23;25.20;;;14.18;;
78668;SDS011;67984;45.118;20.724;2023-03-21T00:57:24;19.47;;;10.03;;
78668;SDS011;67984;45.118;20.724;2023-03-21T01:07:25;26.08;;;12.43;;
78668;SDS011;67984;45.118;20.724;2023-03-21T01:17:25;19.40;;;11.33;;
78668;SDS011;67984;45.118;20.724;2023-03-21T01:27:26;21.50;;;11.88;;
78668;SDS011;67984;45.118;20.724;2023-03-21T01:37:27;22.58;;;11.15;;
78668;SDS011;67984;45.118;20.724;2023-03-21T01:47:46;24.25;;;13.98;;
78668;SDS011;67984;45.118;20.724;2023-03-21T01:58:09;20.05;;;12.38;;
78668;SDS011;67984;45.118;20.724;2023-03-21T02:08:31;21.67;;;14.90;;
78668;SDS011;67984;45.118;20.724;2023-03-21T02:28:46;26.02;;;12.55;;
78668;SDS011;67984;45.118;20.724;2023-03-21T02:49:19;24.92;;;16.15;;
78668;SDS011;67984;45.118;20.724;2023-03-21T02:59:22;26.17;;;14.75;;
78668;SDS011;67984;45.118;20.724;2023-03-21T03:09:29;26.48;;;16.75;;
78668;SDS011;67984;45.118;20.724;2023-03-21T03:19:35;26.73;;;16.17;;
78668;SDS011;67984;45.118;20.724;2023-03-21T03:29:46;28.95;;;17.55;;
78668;SDS011;67984;45.118;20.724;2023-03-21T03:39:56;30.95;;;17.13;;
78668;SDS011;67984;45.118;20.724;2023-03-21T04:00:20;26.77;;;15.80;;
78668;SDS011;67984;45.118;20.724;2023-03-21T04:10:23;26.95;;;15.20;;
78668;SDS011;67984;45.118;20.724;2023-03-21T04:20:24;31.00;;;18.92;;
78668;SDS011;67984;45.118;20.724;2023-03-21T04:30:25;24.88;;;14.38;;
78668;SDS011;67984;45.118;20.724;2023-03-21T04:40:40;22.92;;;14.07;;
78668;SDS011;67984;45.118;20.724;2023-03-21T04:50:41;27.00;;;14.32;;
78668;SDS011;67984;45.118;20.724;2023-03-21T05:00:41;66.78;;;28.15;;
78668;SDS011;67984;45.118;20.724;2023-03-21T05:10:42;46.30;;;20.67;;
78668;SDS011;67984;45.118;20.724;2023-03-21T05:20:44;94.90;;;40.42;;
78668;SDS011;67984;45.118;20.724;2023-03-21T05:30:47;45.55;;;26.67;;
78668;SDS011;67984;45.118;20.724;2023-03-21T05:40:48;64.80;;;29.95;;
78668;SDS011;67984;45.118;20.724;2023-03-21T05:50:52;33.45;;;17.33;;
78668;SDS011;67984;45.118;20.724;2023-03-21T06:00:55;46.60;;;21.90;;
78668;SDS011;67984;45.118;20.724;2023-03-21T06:11:16;30.58;;;19.27;;
78668;SDS011;67984;45.118;20.724;2023-03-21T06:21:24;29.38;;;17.70;;
78668;SDS011;67984;45.118;20.724;2023-03-21T06:31:25;29.48;;;18.83;;
78668;SDS011;67984;45.118;20.724;2023-03-21T06:41:33;39.20;;;19.65;;
78668;SDS011;67984;45.118;20.724;2023-03-21T06:51:37;34.50;;;17.38;;
78668;SDS011;67984;45.118;20.724;2023-03-21T07:01:48;33.67;;;17.48;;
78668;SDS011;67984;45.118;20.724;2023-03-21T07:11:50;36.28;;;19.88;;
78668;SDS011;67984;45.118;20.724;2023-03-21T07:21:56;46.50;;;22.90;;
78668;SDS011;67984;45.118;20.724;2023-03-21T07:31:57;31.42;;;16.83;;
78668;SDS011;67984;45.118;20.724;2023-03-21T07:41:57;29.60;;;14.30;;
78668;SDS011;67984;45.118;20.724;2023-03-21T07:52:05;24.20;;;13.60;;
78668;SDS011;67984;45.118;20.724;2023-03-21T08:02:09;28.35;;;17.75;;
78668;SDS011;67984;45.118;20.724;2023-03-21T08:12:14;26.73;;;16.17;;
78668;SDS011;67984;45.118;20.724;2023-03-21T08:22:16;21.90;;;14.75;;
78668;SDS011;67984;45.118;20.724;2023-03-21T08:32:17;24.10;;;14.70;;
78668;SDS011;67984;45.118;20.724;2023-03-21T08:42:20;19.77;;;12.32;;
78668;SDS011;67984;45.118;20.724;2023-03-21T08:52:22;19.95;;;10.50;;
78668;SDS011;67984;45.118;20.724;2023-03-21T09:02:23;19.52;;;11.98;;
78668;SDS011;67984;45.118;20.724;2023-03-21T09:12:23;22.60;;;12.67;;
78668;SDS011;67984;45.118;20.724;2023-03-21T09:22:24;21.03;;;11.77;;
78668;SDS011;67984;45.118;20.724;2023-03-21T09:32:26;23.88;;;11.35;;
78668;SDS011;67984;45.118;20.724;2023-03-21T09:52:41;12.88;;;8.73;;
78668;SDS011;67984;45.118;20.724;2023-03-21T10:02:56;15.25;;;10.40;;
78668;SDS011;67984;45.118;20.724;2023-03-21T10:13:02;18.85;;;9.60;;
78668;SDS011;67984;45.118;20.724;2023-03-21T10:23:12;10.68;;;9.35;;
78668;SDS011;67984;45.118;20.724;2023-03-21T10:33:17;13.85;;;8.38;;
78668;SDS011;67984;45.118;20.724;2023-03-21T10:53:28;12.80;;;8.95;;
78668;SDS011;67984;45.118;20.724;2023-03-21T11:03:38;12.68;;;8.82;;
78668;SDS011;67984;45.118;20.724;2023-03-21T11:13:43;13.05;;;9.25;;
78668;SDS011;67984;45.118;20.724;2023-03-21T11:23:46;10.80;;;5.82;;
78668;SDS011;67984;45.118;20.724;2023-03-21T11:33:55;11.73;;;8.40;;
78668;SDS011;67984;45.118;20.724;2023-03-21T11:44:00;13.63;;;7.50;;
78668;SDS011;67984;45.118;20.724;2023-03-21T11:54:05;14.55;;;9.98;;
78668;SDS011;67984;45.118;20.724;2023-03-21T12:25:14;5.47;;;4.55;;
78668;SDS011;67984;45.118;20.724;2023-03-21T12:35:26;4.97;;;3.75;;
78668;SDS011;67984;45.118;20.724;2023-03-21T12:45:33;13.52;;;6.50;;
78668;SDS011;67984;45.118;20.724;2023-03-21T12:55:38;8.40;;;4.72;;
78668;SDS011;67984;45.118;20.724;2023-03-21T13:05:43;5.90;;;3.78;;
78668;SDS011;67984;45.118;20.724;2023-03-21T13:16:09;12.23;;;7.13;;
78668;SDS011;67984;45.118;20.724;2023-03-21T13:26:13;3.75;;;2.13;;
78668;SDS011;67984;45.118;20.724;2023-03-21T13:36:17;3.33;;;2.67;;
78668;SDS011;67984;45.118;20.724;2023-03-21T13:56:26;4.05;;;2.35;;
78668;SDS011;67984;45.118;20.724;2023-03-21T14:06:32;3.85;;;2.85;;
78668;SDS011;67984;45.118;20.724;2023-03-21T14:16:38;3.13;;;2.58;;
78668;SDS011;67984;45.118;20.724;2023-03-21T14:26:42;3.47;;;1.73;;
78668;SDS011;67984;45.118;20.724;2023-03-21T14:36:46;2.67;;;1.13;;
78668;SDS011;67984;45.118;20.724;2023-03-21T14:46:48;9.10;;;3.60;;
78668;SDS011;67984;45.118;20.724;2023-03-21T14:56:59;4.70;;;2.42;;
78668;SDS011;67984;45.118;20.724;2023-03-21T15:07:03;11.50;;;3.25;;
78668;SDS011;67984;45.118;20.724;2023-03-21T15:17:05;11.38;;;5.38;;
78668;SDS011;67984;45.118;20.724;2023-03-21T15:27:15;11.85;;;6.93;;
78668;SDS011;67984;45.118;20.724;2023-03-21T15:37:27;10.90;;;5.90;;
78668;SDS011;67984;45.118;20.724;2023-03-21T16:08:20;25.85;;;13.30;;
78668;SDS011;67984;45.118;20.724;2023-03-21T16:18:25;17.08;;;8.75;;
78668;SDS011;67984;45.118;20.724;2023-03-21T16:28:26;29.00;;;13.17;;
78668;SDS011;67984;45.118;20.724;2023-03-21T16:38:28;58.97;;;22.85;;
78668;SDS011;67984;45.118;20.724;2023-03-21T16:48:29;46.67;;;21.90;;
78668;SDS011;67984;45.118;20.724;2023-03-21T16:58:31;38.22;;;14.90;;
78668;SDS011;67984;45.118;20.724;2023-03-21T17:08:32;53.33;;;19.75;;
78668;SDS011;67984;45.118;20.724;2023-03-21T17:18:33;45.03;;;19.77;;
78668;SDS011;67984;45.118;20.724;2023-03-21T17:28:37;70.45;;;30.70;;
78668;SDS011;67984;45.118;20.724;2023-03-21T17:38:38;134.35;;;50.28;;
78668;SDS011;67984;45.118;20.724;2023-03-21T17:48:38;222.70;;;93.73;;
78668;SDS011;67984;45.118;20.724;2023-03-21T17:58:40;147.27;;;64.60;;
78668;SDS011;67984;45.118;20.724;2023-03-21T18:08:40;144.88;;;58.70;;
78668;SDS011;67984;45.118;20.724;2023-03-21T18:18:41;131.60;;;54.10;;
78668;SDS011;67984;45.118;20.724;2023-03-21T18:28:44;141.60;;;55.38;;
78668;SDS011;67984;45.118;20.724;2023-03-21T18:38:46;164.20;;;73.32;;
78668;SDS011;67984;45.118;20.724;2023-03-21T18:48:47;286.58;;;118.57;;
78668;SDS011;67984;45.118;20.724;2023-03-21T18:58:48;103.37;;;43.87;;
78668;SDS011;67984;45.118;20.724;2023-03-21T19:08:49;43.13;;;21.92;;
78668;SDS011;67984;45.118;20.724;2023-03-21T19:18:51;28.88;;;14.02;;
78668;SDS011;67984;45.118;20.724;2023-03-21T19:28:53;21.20;;;10.55;;
78668;SDS011;67984;45.118;20.724;2023-03-21T19:38:54;47.22;;;18.40;;
78668;SDS011;67984;45.118;20.724;2023-03-21T19:48:55;42.95;;;18.17;;
78668;SDS011;67984;45.118;20.724;2023-03-21T19:58:56;26.85;;;13.35;;
78668;SDS011;67984;45.118;20.724;2023-03-21T20:08:57;26.30;;;10.70;;
78668;SDS011;67984;45.118;20.724;2023-03-21T20:18:58;22.05;;;10.35;;
78668;SDS011;67984;45.118;20.724;2023-03-21T20:28:59;17.23;;;9.65;;
78668;SDS011;67984;45.118;20.724;2023-03-21T20:39:00;20.23;;;9.68;;
78668;SDS011;67984;45.118;20.724;2023-03-21T20:49:01;17.80;;;9.90;;
78668;SDS011;67984;45.118;20.724;2023-03-21T20:59:01;14.83;;;8.30;;
78668;SDS011;67984;45.118;20.724;2023-03-21T21:09:03;14.80;;;6.82;;
78668;SDS011;67984;45.118;20.724;2023-03-21T21:19:04;16.35;;;7.55;;
78668;SDS011;67984;45.118;20.724;2023-03-21T21:29:05;20.33;;;10.45;;
78668;SDS011;67984;45.118;20.724;2023-03-21T21:39:06;16.83;;;10.75;;
78668;SDS011;67984;45.118;20.724;2023-03-21T21:49:07;54.97;;;22.13;;
78668;SDS011;67984;45.118;20.724;2023-03-21T21:59:07;29.93;;;13.60;;
78668;SDS011;67984;45.118;20.724;2023-03-21T22:09:08;30.93;;;14.57;;
78668;SDS011;67984;45.118;20.724;2023-03-21T22:19:10;9.32;;;5.85;;
78668;SDS011;67984;45.118;20.724;2023-03-21T22:29:11;13.70;;;6.80;;
78668;SDS011;67984;45.118;20.724;2023-03-21T22:39:12;13.57;;;6.35;;
78668;SDS011;67984;45.118;20.724;2023-03-21T22:49:12;18.53;;;6.80;;
78668;SDS011;67984;45.118;20.724;2023-03-21T22:59:13;33.23;;;11.90;;
78668;SDS011;67984;45.118;20.724;2023-03-21T23:09:14;17.27;;;9.48;;
78668;SDS011;67984;45.118;20.724;2023-03-21T23:19:17;14.75;;;8.35;;
78668;SDS011;67984;45.118;20.724;2023-03-21T23:29:19;16.33;;;8.15;;
78668;SDS011;67984;45.118;20.724;2023-03-21T23:39:20;14.90;;;8.57;;
78668;SDS011;67984;45.118;20.724;2023-03-21T23:49:20;13.40;;;6.97;;
78668;SDS011;67984;45.118;20.724;2023-03-21T23:59:21;14.50;;;6.20;;
